sensor_id;sensor_type;location;lat;lon;timestamp;pressure;altitude;pressure_sealevel;temperature
49593;BMP280;35499;51.482;4.264;2023-04-25T00:00:46;101200.28;;;7.60
49593;BMP280;35499;51.482;4.264;2023-04-25T00:03:11;101200.25;;;7.58
49593;BMP280;35499;51.482;4.264;2023-04-25T00:05:37;101202.81;;;7.57
49593;BMP280;35499;51.482;4.264;2023-04-25T00:08:03;101201.13;;;7.56
49593;BMP280;35499;51.482;4.264;2023-04-25T00:10:29;101199.41;;;7.55
49593;BMP280;35499;51.482;4.264;2023-04-25T00:12:54;101194.28;;;7.58
49593;BMP280;35499;51.482;4.264;2023-04-25T00:15:19;101197.72;;;7.63
49593;BMP280;35499;51.482;4.264;2023-04-25T00:17:45;101197.72;;;7.68
49593;BMP280;35499;51.482;4.264;2023-04-25T00:20:11;101197.75;;;7.74
49593;BMP280;35499;51.482;4.264;2023-04-25T00:22:36;101202.03;;;7.77
49593;BMP280;35499;51.482;4.264;2023-04-25T00:25:04;101202.03;;;7.75
49593;BMP280;35499;51.482;4.264;2023-04-25T00:27:29;101200.31;;;7.74
49593;BMP280;35499;51.482;4.264;2023-04-25T00:29:55;101196.91;;;7.71
49593;BMP280;35499;51.482;4.264;2023-04-25T00:32:20;101210.50;;;7.67
49593;BMP280;35499;51.482;4.264;2023-04-25T00:34:45;101208.78;;;7.63
49593;BMP280;35499;51.482;4.264;2023-04-25T00:37:11;101210.47;;;7.58
49593;BMP280;35499;51.482;4.264;2023-04-25T00:39:36;101205.34;;;7.54
49593;BMP280;35499;51.482;4.264;2023-04-25T00:42:02;101209.59;;;7.49
49593;BMP280;35499;51.482;4.264;2023-04-25T00:44:29;101209.59;;;7.49
49593;BMP280;35499;51.482;4.264;2023-04-25T00:46:54;101206.19;;;7.47
49593;BMP280;35499;51.482;4.264;2023-04-25T00:49:20;101216.41;;;7.47
49593;BMP280;35499;51.482;4.264;2023-04-25T00:51:45;101212.16;;;7.49
49593;BMP280;35499;51.482;4.264;2023-04-25T00:54:12;101217.28;;;7.53
49593;BMP280;35499;51.482;4.264;2023-04-25T00:56:37;101221.56;;;7.59
49593;BMP280;35499;51.482;4.264;2023-04-25T00:59:03;101214.75;;;7.64
49593;BMP280;35499;51.482;4.264;2023-04-25T01:01:29;101224.16;;;7.70
49593;BMP280;35499;51.482;4.264;2023-04-25T01:03:56;101225.03;;;7.75
49593;BMP280;35499;51.482;4.264;2023-04-25T01:06:21;101219.94;;;7.81
49593;BMP280;35499;51.482;4.264;2023-04-25T01:08:47;101220.78;;;7.85
49593;BMP280;35499;51.482;4.264;2023-04-25T01:11:12;101218.25;;;7.86
49593;BMP280;35499;51.482;4.264;2023-04-25T01:13:38;101218.25;;;7.86
49593;BMP280;35499;51.482;4.264;2023-04-25T01:16:03;101219.09;;;7.86
49593;BMP280;35499;51.482;4.264;2023-04-25T01:18:29;101218.25;;;7.89
49593;BMP280;35499;51.482;4.264;2023-04-25T01:20:54;101217.41;;;7.90
49593;BMP280;35499;51.482;4.264;2023-04-25T01:23:21;101221.66;;;7.91
49593;BMP280;35499;51.482;4.264;2023-04-25T01:25:47;101231.03;;;7.90
49593;BMP280;35499;51.482;4.264;2023-04-25T01:28:13;101232.75;;;7.90
49593;BMP280;35499;51.482;4.264;2023-04-25T01:30:38;101234.47;;;7.91
49593;BMP280;35499;51.482;4.264;2023-04-25T01:33:04;101239.56;;;7.91
49593;BMP280;35499;51.482;4.264;2023-04-25T01:35:30;101238.69;;;7.93
49593;BMP280;35499;51.482;4.264;2023-04-25T01:37:56;101238.69;;;7.93
49593;BMP280;35499;51.482;4.264;2023-04-25T01:40:21;101239.56;;;7.95
49593;BMP280;35499;51.482;4.264;2023-04-25T01:42:48;101236.19;;;7.96
49593;BMP280;35499;51.482;4.264;2023-04-25T01:45:13;101231.06;;;7.95
49593;BMP280;35499;51.482;4.264;2023-04-25T01:47:39;101241.28;;;7.95
49593;BMP280;35499;51.482;4.264;2023-04-25T01:50:07;101231.06;;;7.95
49593;BMP280;35499;51.482;4.264;2023-04-25T01:52:32;101237.03;;;7.97
49593;BMP280;35499;51.482;4.264;2023-04-25T01:55:02;101245.56;;;7.96
49593;BMP280;35499;51.482;4.264;2023-04-25T01:57:27;101239.59;;;7.97
49593;BMP280;35499;51.482;4.264;2023-04-25T02:00:05;101249.81;;;7.97
49593;BMP280;35499;51.482;4.264;2023-04-25T02:02:31;101244.72;;;7.97
49593;BMP280;35499;51.482;4.264;2023-04-25T02:04:57;101251.53;;;7.96
49593;BMP280;35499;51.482;4.264;2023-04-25T02:07:22;101245.56;;;7.96
49593;BMP280;35499;51.482;4.264;2023-04-25T02:09:47;101252.38;;;7.97
49593;BMP280;35499;51.482;4.264;2023-04-25T02:12:13;101247.25;;;7.97
49593;BMP280;35499;51.482;4.264;2023-04-25T02:14:38;101247.25;;;7.95
49593;BMP280;35499;51.482;4.264;2023-04-25T02:17:03;101250.66;;;7.96
49593;BMP280;35499;51.482;4.264;2023-04-25T02:19:29;101251.53;;;7.96
49593;BMP280;35499;51.482;4.264;2023-04-25T02:21:54;101254.09;;;7.98
49593;BMP280;35499;51.482;4.264;2023-04-25T02:24:20;101251.53;;;7.98
49593;BMP280;35499;51.482;4.264;2023-04-25T02:26:45;101255.81;;;7.99
49593;BMP280;35499;51.482;4.264;2023-04-25T02:29:12;101260.06;;;7.98
49593;BMP280;35499;51.482;4.264;2023-04-25T02:31:37;101257.50;;;7.97
49593;BMP280;35499;51.482;4.264;2023-04-25T02:34:02;101255.75;;;7.97
49593;BMP280;35499;51.482;4.264;2023-04-25T02:36:27;101260.03;;;7.95
49593;BMP280;35499;51.482;4.264;2023-04-25T02:38:55;101260.91;;;7.96
49593;BMP280;35499;51.482;4.264;2023-04-25T02:41:20;101265.16;;;7.97
49593;BMP280;35499;51.482;4.264;2023-04-25T02:43:45;101266.00;;;7.96
49593;BMP280;35499;51.482;4.264;2023-04-25T02:46:11;101271.09;;;7.94
49593;BMP280;35499;51.482;4.264;2023-04-25T02:48:36;101271.97;;;7.92
49593;BMP280;35499;51.482;4.264;2023-04-25T02:51:01;101265.13;;;7.89
49593;BMP280;35499;51.482;4.264;2023-04-25T02:53:27;101271.94;;;7.86
49593;BMP280;35499;51.482;4.264;2023-04-25T02:55:52;101277.88;;;7.81
49593;BMP280;35499;51.482;4.264;2023-04-25T02:58:18;101282.09;;;7.77
49593;BMP280;35499;51.482;4.264;2023-04-25T03:00:43;101280.41;;;7.75
49593;BMP280;35499;51.482;4.264;2023-04-25T03:03:08;101275.28;;;7.73
49593;BMP280;35499;51.482;4.264;2023-04-25T03:05:33;101274.44;;;7.71
49593;BMP280;35499;51.482;4.264;2023-04-25T03:07:59;101271.00;;;7.72
49593;BMP280;35499;51.482;4.264;2023-04-25T03:10:24;101265.91;;;7.71
49593;BMP280;35499;51.482;4.264;2023-04-25T03:12:49;101277.00;;;7.71
49593;BMP280;35499;51.482;4.264;2023-04-25T03:15:15;101271.88;;;7.70
49593;BMP280;35499;51.482;4.264;2023-04-25T03:17:41;101276.97;;;7.70
49593;BMP280;35499;51.482;4.264;2023-04-25T03:20:07;101272.69;;;7.68
49593;BMP280;35499;51.482;4.264;2023-04-25T03:22:33;101276.13;;;7.67
49593;BMP280;35499;51.482;4.264;2023-04-25T03:24:59;101269.31;;;7.66
49593;BMP280;35499;51.482;4.264;2023-04-25T03:27:24;101271.84;;;7.66
49593;BMP280;35499;51.482;4.264;2023-04-25T03:29:49;101272.72;;;7.66
49593;BMP280;35499;51.482;4.264;2023-04-25T03:32:15;101273.56;;;7.65
49593;BMP280;35499;51.482;4.264;2023-04-25T03:34:40;101271.84;;;7.64
49593;BMP280;35499;51.482;4.264;2023-04-25T03:37:05;101276.94;;;7.63
49593;BMP280;35499;51.482;4.264;2023-04-25T03:39:31;101282.88;;;7.59
49593;BMP280;35499;51.482;4.264;2023-04-25T03:41:56;101280.31;;;7.54
49593;BMP280;35499;51.482;4.264;2023-04-25T03:44:21;101282.00;;;7.51
49593;BMP280;35499;51.482;4.264;2023-04-25T03:46:47;101290.53;;;7.47
49593;BMP280;35499;51.482;4.264;2023-04-25T03:49:13;101292.19;;;7.44
49593;BMP280;35499;51.482;4.264;2023-04-25T03:51:38;101289.59;;;7.39
49593;BMP280;35499;51.482;4.264;2023-04-25T03:54:03;101282.78;;;7.37
49593;BMP280;35499;51.482;4.264;2023-04-25T03:56:29;101281.06;;;7.34
49593;BMP280;35499;51.482;4.264;2023-04-25T03:58:55;101290.41;;;7.32
49593;BMP280;35499;51.482;4.264;2023-04-25T04:01:20;101289.53;;;7.28
49593;BMP280;35499;51.482;4.264;2023-04-25T04:03:45;101298.03;;;7.24
49593;BMP280;35499;51.482;4.264;2023-04-25T04:06:10;101292.00;;;7.17
49593;BMP280;35499;51.482;4.264;2023-04-25T04:08:36;101300.50;;;7.12
49593;BMP280;35499;51.482;4.264;2023-04-25T04:11:01;101298.75;;;7.05
49593;BMP280;35499;51.482;4.264;2023-04-25T04:13:27;101311.47;;;7.02
49593;BMP280;35499;51.482;4.264;2023-04-25T04:15:52;101311.47;;;6.99
49593;BMP280;35499;51.482;4.264;2023-04-25T04:18:18;101309.78;;;7.00
49593;BMP280;35499;51.482;4.264;2023-04-25T04:20:43;101318.31;;;7.03
49593;BMP280;35499;51.482;4.264;2023-04-25T04:23:09;101318.31;;;7.05
49593;BMP280;35499;51.482;4.264;2023-04-25T04:25:34;101323.44;;;7.06
49593;BMP280;35499;51.482;4.264;2023-04-25T04:28:00;101323.44;;;7.06
49593;BMP280;35499;51.482;4.264;2023-04-25T04:30:26;101313.25;;;7.06
49593;BMP280;35499;51.482;4.264;2023-04-25T04:32:55;101304.69;;;7.04
49593;BMP280;35499;51.482;4.264;2023-04-25T04:35:21;101301.25;;;7.02
49593;BMP280;35499;51.482;4.264;2023-04-25T04:37:46;101304.69;;;7.01
49593;BMP280;35499;51.482;4.264;2023-04-25T04:40:13;101318.31;;;7.03
49593;BMP280;35499;51.482;4.264;2023-04-25T04:42:40;101308.97;;;7.05
49593;BMP280;35499;51.482;4.264;2023-04-25T04:45:06;101307.28;;;7.09
49593;BMP280;35499;51.482;4.264;2023-04-25T04:47:31;101306.47;;;7.11
49593;BMP280;35499;51.482;4.264;2023-04-25T04:49:57;101313.28;;;7.15
49593;BMP280;35499;51.482;4.264;2023-04-25T04:52:23;101320.13;;;7.16
49593;BMP280;35499;51.482;4.264;2023-04-25T04:54:48;101328.63;;;7.15
49593;BMP280;35499;51.482;4.264;2023-04-25T04:57:13;101325.22;;;7.16
49593;BMP280;35499;51.482;4.264;2023-04-25T04:59:38;101335.44;;;7.19
49593;BMP280;35499;51.482;4.264;2023-04-25T05:02:04;101335.50;;;7.22
49593;BMP280;35499;51.482;4.264;2023-04-25T05:04:29;101340.63;;;7.26
49593;BMP280;35499;51.482;4.264;2023-04-25T05:06:54;101341.47;;;7.30
49593;BMP280;35499;51.482;4.264;2023-04-25T05:09:20;101344.06;;;7.34
49593;BMP280;35499;51.482;4.264;2023-04-25T05:11:45;101344.09;;;7.38
49593;BMP280;35499;51.482;4.264;2023-04-25T05:14:11;101350.13;;;7.46
49593;BMP280;35499;51.482;4.264;2023-04-25T05:16:36;101353.56;;;7.54
49593;BMP280;35499;51.482;4.264;2023-04-25T05:19:01;101353.59;;;7.57
49593;BMP280;35499;51.482;4.264;2023-04-25T05:21:27;101360.41;;;7.59
49593;BMP280;35499;51.482;4.264;2023-04-25T05:23:53;101364.72;;;7.62
49593;BMP280;35499;51.482;4.264;2023-04-25T05:26:18;101368.97;;;7.64
49593;BMP280;35499;51.482;4.264;2023-04-25T05:28:45;101375.78;;;7.64
49593;BMP280;35499;51.482;4.264;2023-04-25T05:31:11;101368.97;;;7.61
49593;BMP280;35499;51.482;4.264;2023-04-25T05:33:37;101374.03;;;7.57
49593;BMP280;35499;51.482;4.264;2023-04-25T05:36:02;101385.09;;;7.56
49593;BMP280;35499;51.482;4.264;2023-04-25T05:38:28;101388.47;;;7.53
49593;BMP280;35499;51.482;4.264;2023-04-25T05:40:53;101384.22;;;7.54
49593;BMP280;35499;51.482;4.264;2023-04-25T05:43:18;101391.06;;;7.56
49593;BMP280;35499;51.482;4.264;2023-04-25T05:45:44;101391.09;;;7.62
49593;BMP280;35499;51.482;4.264;2023-04-25T05:48:09;101393.72;;;7.69
49593;BMP280;35499;51.482;4.264;2023-04-25T05:50:34;101400.59;;;7.79
49593;BMP280;35499;51.482;4.264;2023-04-25T05:53:00;101404.06;;;7.90
49593;BMP280;35499;51.482;4.264;2023-04-25T05:55:25;101406.63;;;7.97
49593;BMP280;35499;51.482;4.264;2023-04-25T05:57:50;101405.84;;;8.03
49593;BMP280;35499;51.482;4.264;2023-04-25T06:00:16;101412.72;;;8.06
49593;BMP280;35499;51.482;4.264;2023-04-25T06:02:41;101405.88;;;8.08
49593;BMP280;35499;51.482;4.264;2023-04-25T06:05:07;101406.75;;;8.09
49593;BMP280;35499;51.482;4.264;2023-04-25T06:07:33;101411.03;;;8.14
49593;BMP280;35499;51.482;4.264;2023-04-25T06:09:58;101412.78;;;8.21
49593;BMP280;35499;51.482;4.264;2023-04-25T06:12:25;101409.38;;;8.28
49593;BMP280;35499;51.482;4.264;2023-04-25T06:14:50;101415.41;;;8.36
49593;BMP280;35499;51.482;4.264;2023-04-25T06:17:15;101404.34;;;8.45
49593;BMP280;35499;51.482;4.264;2023-04-25T06:19:40;101404.47;;;9.01
49593;BMP280;35499;51.482;4.264;2023-04-25T06:22:07;101380.47;;;9.86
49593;BMP280;35499;51.482;4.264;2023-04-25T06:24:32;101386.81;;;10.90
49593;BMP280;35499;51.482;4.264;2023-04-25T06:26:58;101385.66;;;11.30
49593;BMP280;35499;51.482;4.264;2023-04-25T06:29:25;101390.00;;;11.21
49593;BMP280;35499;51.482;4.264;2023-04-25T06:31:50;101384.03;;;11.13
49593;BMP280;35499;51.482;4.264;2023-04-25T06:34:16;101399.50;;;11.07
49593;BMP280;35499;51.482;4.264;2023-04-25T06:36:41;101403.88;;;10.96
49593;BMP280;35499;51.482;4.264;2023-04-25T06:39:06;101409.97;;;10.85
49593;BMP280;35499;51.482;4.264;2023-04-25T06:41:32;101410.00;;;10.81
49593;BMP280;35499;51.482;4.264;2023-04-25T06:43:57;101412.56;;;10.78
49593;BMP280;35499;51.482;4.264;2023-04-25T06:46:22;101424.56;;;10.80
49593;BMP280;35499;51.482;4.264;2023-04-25T06:48:47;101427.06;;;10.88
49593;BMP280;35499;51.482;4.264;2023-04-25T06:51:13;101432.16;;;10.95
49593;BMP280;35499;51.482;4.264;2023-04-25T06:53:39;101432.91;;;11.07
49593;BMP280;35499;51.482;4.264;2023-04-25T06:56:04;101442.25;;;11.23
49593;BMP280;35499;51.482;4.264;2023-04-25T06:58:29;101453.50;;;11.10
49593;BMP280;35499;51.482;4.264;2023-04-25T07:00:54;101457.16;;;10.70
49593;BMP280;35499;51.482;4.264;2023-04-25T07:03:20;101463.31;;;10.23
49593;BMP280;35499;51.482;4.264;2023-04-25T07:05:45;101462.56;;;9.82
49593;BMP280;35499;51.482;4.264;2023-04-25T07:08:11;101477.94;;;9.57
49593;BMP280;35499;51.482;4.264;2023-04-25T07:10:36;101485.63;;;9.47
49593;BMP280;35499;51.482;4.264;2023-04-25T07:13:02;101476.22;;;9.42
49593;BMP280;35499;51.482;4.264;2023-04-25T07:15:27;101477.06;;;9.38
49593;BMP280;35499;51.482;4.264;2023-04-25T07:17:52;101483.91;;;9.39
49593;BMP280;35499;51.482;4.264;2023-04-25T07:20:17;101477.94;;;9.47
49593;BMP280;35499;51.482;4.264;2023-04-25T07:22:43;101481.38;;;9.61
49593;BMP280;35499;51.482;4.264;2023-04-25T07:25:09;101477.06;;;9.74
49593;BMP280;35499;51.482;4.264;2023-04-25T07:27:34;101477.94;;;9.83
49593;BMP280;35499;51.482;4.264;2023-04-25T07:30:00;101488.22;;;9.95
49593;BMP280;35499;51.482;4.264;2023-04-25T07:32:25;101483.03;;;10.07
49593;BMP280;35499;51.482;4.264;2023-04-25T07:34:51;101486.44;;;10.19
49593;BMP280;35499;51.482;4.264;2023-04-25T07:37:16;101483.84;;;10.35
49593;BMP280;35499;51.482;4.264;2023-04-25T07:39:44;101479.47;;;10.60
49593;BMP280;35499;51.482;4.264;2023-04-25T07:42:11;101478.34;;;11.07
49593;BMP280;35499;51.482;4.264;2023-04-25T07:44:36;101479.00;;;11.39
49593;BMP280;35499;51.482;4.264;2023-04-25T07:47:07;101482.00;;;11.89
49593;BMP280;35499;51.482;4.264;2023-04-25T07:49:37;101474.16;;;12.77
49593;BMP280;35499;51.482;4.264;2023-04-25T07:52:03;101473.97;;;13.48
49593;BMP280;35499;51.482;4.264;2023-04-25T07:54:29;101471.22;;;14.08
49593;BMP280;35499;51.482;4.264;2023-04-25T07:56:55;101470.63;;;14.79
49593;BMP280;35499;51.482;4.264;2023-04-25T07:59:20;101473.41;;;15.10
49593;BMP280;35499;51.482;4.264;2023-04-25T08:01:45;101473.88;;;15.62
49593;BMP280;35499;51.482;4.264;2023-04-25T08:04:11;101463.81;;;16.17
49593;BMP280;35499;51.482;4.264;2023-04-25T08:06:36;101465.84;;;16.95
49593;BMP280;35499;51.482;4.264;2023-04-25T08:09:02;101449.16;;;17.82
49593;BMP280;35499;51.482;4.264;2023-04-25T08:11:28;101452.38;;;18.38
49593;BMP280;35499;51.482;4.264;2023-04-25T08:13:53;101457.56;;;18.38
49593;BMP280;35499;51.482;4.264;2023-04-25T08:16:18;101471.94;;;18.00
49593;BMP280;35499;51.482;4.264;2023-04-25T08:18:43;101486.41;;;17.02
49593;BMP280;35499;51.482;4.264;2023-04-25T08:21:09;101489.63;;;15.87
49593;BMP280;35499;51.482;4.264;2023-04-25T08:23:36;101508.91;;;15.04
49593;BMP280;35499;51.482;4.264;2023-04-25T08:26:02;101516.41;;;14.30
49593;BMP280;35499;51.482;4.264;2023-04-25T08:28:27;101522.41;;;14.34
49593;BMP280;35499;51.482;4.264;2023-04-25T08:30:53;101530.28;;;15.13
49593;BMP280;35499;51.482;4.264;2023-04-25T08:33:18;101531.91;;;15.17
49593;BMP280;35499;51.482;4.264;2023-04-25T08:35:44;101532.66;;;14.80
49593;BMP280;35499;51.482;4.264;2023-04-25T08:38:09;101535.78;;;14.54
49593;BMP280;35499;51.482;4.264;2023-04-25T08:40:37;101552.72;;;14.24
49593;BMP280;35499;51.482;4.264;2023-04-25T08:43:03;101548.44;;;14.23
49593;BMP280;35499;51.482;4.264;2023-04-25T08:45:31;101543.25;;;15.10
49593;BMP280;35499;51.482;4.264;2023-04-25T08:47:57;101541.94;;;16.35
49593;BMP280;35499;51.482;4.264;2023-04-25T08:50:23;101535.09;;;17.50
49593;BMP280;35499;51.482;4.264;2023-04-25T08:52:50;101542.22;;;18.46
49593;BMP280;35499;51.482;4.264;2023-04-25T08:55:18;101529.94;;;19.19
49593;BMP280;35499;51.482;4.264;2023-04-25T08:57:44;101538.84;;;19.99
49593;BMP280;35499;51.482;4.264;2023-04-25T09:04:38;101538.19;;;19.30
49593;BMP280;35499;51.482;4.264;2023-04-25T09:07:04;101540.66;;;18.42
49593;BMP280;35499;51.482;4.264;2023-04-25T09:09:30;101556.72;;;17.50
49593;BMP280;35499;51.482;4.264;2023-04-25T09:11:55;101570.63;;;16.91
49593;BMP280;35499;51.482;4.264;2023-04-25T09:14:22;101571.63;;;16.55
49593;BMP280;35499;51.482;4.264;2023-04-25T09:16:57;101578.78;;;16.47
49593;BMP280;35499;51.482;4.264;2023-04-25T09:21:54;101577.31;;;16.68
49593;BMP280;35499;51.482;4.264;2023-04-25T09:24:40;101587.91;;;16.29
49593;BMP280;35499;51.482;4.264;2023-04-25T09:27:07;101584.13;;;16.09
49593;BMP280;35499;51.482;4.264;2023-04-25T09:29:35;101593.03;;;15.97
49593;BMP280;35499;51.482;4.264;2023-04-25T09:32:23;101590.94;;;16.12
49593;BMP280;35499;51.482;4.264;2023-04-25T09:34:51;101594.47;;;16.41
49593;BMP280;35499;51.482;4.264;2023-04-25T09:37:21;101599.31;;;16.54
49593;BMP280;35499;51.482;4.264;2023-04-25T09:39:48;101595.81;;;16.57
49593;BMP280;35499;51.482;4.264;2023-04-25T09:42:15;101592.53;;;16.80
49593;BMP280;35499;51.482;4.264;2023-04-25T09:44:45;101597.47;;;16.89
49593;BMP280;35499;51.482;4.264;2023-04-25T09:47:12;101598.19;;;16.95
49593;BMP280;35499;51.482;4.264;2023-04-25T09:49:42;101590.94;;;17.36
49593;BMP280;35499;51.482;4.264;2023-04-25T09:52:08;101602.44;;;17.55
49593;BMP280;35499;51.482;4.264;2023-04-25T09:54:33;101593.41;;;17.95
49593;BMP280;35499;51.482;4.264;2023-04-25T09:57:15;101595.06;;;18.48
49593;BMP280;35499;51.482;4.264;2023-04-25T09:59:48;101597.84;;;19.37
49593;BMP280;35499;51.482;4.264;2023-04-25T10:02:16;101604.88;;;20.21
49593;BMP280;35499;51.482;4.264;2023-04-25T10:04:44;101602.31;;;20.19
49593;BMP280;35499;51.482;4.264;2023-04-25T10:07:11;101604.81;;;20.43
49593;BMP280;35499;51.482;4.264;2023-04-25T10:09:38;101616.53;;;20.33
49593;BMP280;35499;51.482;4.264;2023-04-25T10:12:05;101621.75;;;19.91
49593;BMP280;35499;51.482;4.264;2023-04-25T10:14:31;101613.41;;;19.61
49593;BMP280;35499;51.482;4.264;2023-04-25T10:16:57;101617.88;;;20.22
49593;BMP280;35499;51.482;4.264;2023-04-25T10:19:24;101612.78;;;20.79
49593;BMP280;35499;51.482;4.264;2023-04-25T10:22:13;101610.97;;;21.00
49593;BMP280;35499;51.482;4.264;2023-04-25T10:24:40;101615.28;;;20.82
49593;BMP280;35499;51.482;4.264;2023-04-25T10:27:06;101612.72;;;20.42
49593;BMP280;35499;51.482;4.264;2023-04-25T10:29:32;101621.06;;;20.07
49593;BMP280;35499;51.482;4.264;2023-04-25T10:31:57;101635.50;;;19.74
49593;BMP280;35499;51.482;4.264;2023-04-25T10:34:40;101633.09;;;19.46
49593;BMP280;35499;51.482;4.264;2023-04-25T10:37:09;101630.94;;;19.79
49593;BMP280;35499;51.482;4.264;2023-04-25T10:39:34;101639.56;;;19.81
49593;BMP280;35499;51.482;4.264;2023-04-25T10:42:01;101642.38;;;19.30
49593;BMP280;35499;51.482;4.264;2023-04-25T10:44:30;101656.03;;;18.40
49593;BMP280;35499;51.482;4.264;2023-04-25T10:47:00;101668.03;;;17.34
49593;BMP280;35499;51.482;4.264;2023-04-25T10:49:29;101670.31;;;16.16
49593;BMP280;35499;51.482;4.264;2023-04-25T10:54:47;101670.59;;;15.25
49593;BMP280;35499;51.482;4.264;2023-04-25T10:57:32;101680.69;;;15.38
49593;BMP280;35499;51.482;4.264;2023-04-25T11:02:31;101695.91;;;15.10
49593;BMP280;35499;51.482;4.264;2023-04-25T11:04:56;101698.47;;;15.11
49593;BMP280;35499;51.482;4.264;2023-04-25T11:07:35;101681.38;;;15.46
49593;BMP280;35499;51.482;4.264;2023-04-25T11:10:03;101680.94;;;15.66
49593;BMP280;35499;51.482;4.264;2023-04-25T11:12:30;101677.91;;;15.85
49593;BMP280;35499;51.482;4.264;2023-04-25T11:15:04;101678.09;;;16.15
49593;BMP280;35499;51.482;4.264;2023-04-25T11:17:30;101673.59;;;16.57
49593;BMP280;35499;51.482;4.264;2023-04-25T11:19:55;101675.25;;;16.93
49593;BMP280;35499;51.482;4.264;2023-04-25T11:22:22;101671.91;;;17.49
49593;BMP280;35499;51.482;4.264;2023-04-25T11:24:47;101663.75;;;18.17
49593;BMP280;35499;51.482;4.264;2023-04-25T11:27:13;101656.94;;;18.64
49593;BMP280;35499;51.482;4.264;2023-04-25T11:29:38;101658.56;;;18.68
49593;BMP280;35499;51.482;4.264;2023-04-25T11:32:03;101660.22;;;18.69
49593;BMP280;35499;51.482;4.264;2023-04-25T11:34:30;101653.94;;;18.50
49593;BMP280;35499;51.482;4.264;2023-04-25T11:36:56;101647.34;;;18.41
49593;BMP280;35499;51.482;4.264;2023-04-25T11:39:23;101654.63;;;18.30
49593;BMP280;35499;51.482;4.264;2023-04-25T11:41:48;101655.06;;;17.90
49593;BMP280;35499;51.482;4.264;2023-04-25T11:44:19;101668.53;;;17.18
49593;BMP280;35499;51.482;4.264;2023-04-25T11:46:45;101669.13;;;16.63
49593;BMP280;35499;51.482;4.264;2023-04-25T11:49:11;101672.31;;;16.04
49593;BMP280;35499;51.482;4.264;2023-04-25T11:51:44;101672.97;;;15.75
49593;BMP280;35499;51.482;4.264;2023-04-25T11:54:10;101671.44;;;16.05
49593;BMP280;35499;51.482;4.264;2023-04-25T11:56:37;101663.69;;;16.72
49593;BMP280;35499;51.482;4.264;2023-04-25T11:59:04;101663.47;;;17.13
49593;BMP280;35499;51.482;4.264;2023-04-25T12:01:35;101660.03;;;17.41
49593;BMP280;35499;51.482;4.264;2023-04-25T12:06:40;101664.00;;;18.35
49593;BMP280;35499;51.482;4.264;2023-04-25T12:09:11;101655.28;;;19.11
49593;BMP280;35499;51.482;4.264;2023-04-25T12:14:07;101661.72;;;19.47
49593;BMP280;35499;51.482;4.264;2023-04-25T12:16:42;101658.28;;;19.69
49593;BMP280;35499;51.482;4.264;2023-04-25T12:19:08;101668.88;;;19.65
49593;BMP280;35499;51.482;4.264;2023-04-25T12:21:33;101670.63;;;19.18
49593;BMP280;35499;51.482;4.264;2023-04-25T12:24:13;101685.06;;;18.79
49593;BMP280;35499;51.482;4.264;2023-04-25T12:26:50;101676.19;;;19.08
49593;BMP280;35499;51.482;4.264;2023-04-25T12:29:21;101673.44;;;19.36
49593;BMP280;35499;51.482;4.264;2023-04-25T12:31:48;101674.50;;;19.54
49593;BMP280;35499;51.482;4.264;2023-04-25T12:34:14;101680.38;;;19.59
49593;BMP280;35499;51.482;4.264;2023-04-25T12:36:40;101679.47;;;19.60
49593;BMP280;35499;51.482;4.264;2023-04-25T12:39:06;101678.53;;;19.39
49593;BMP280;35499;51.482;4.264;2023-04-25T12:41:32;101687.38;;;18.62
49593;BMP280;35499;51.482;4.264;2023-04-25T12:43:57;101701.91;;;17.89
49593;BMP280;35499;51.482;4.264;2023-04-25T12:46:22;101697.63;;;17.58
49593;BMP280;35499;51.482;4.264;2023-04-25T12:48:48;101695.66;;;17.36
49593;BMP280;35499;51.482;4.264;2023-04-25T12:51:13;101696.97;;;17.50
49593;BMP280;35499;51.482;4.264;2023-04-25T12:53:38;101691.63;;;17.56
49593;BMP280;35499;51.482;4.264;2023-04-25T12:56:06;101693.88;;;17.96
49593;BMP280;35499;51.482;4.264;2023-04-25T12:58:32;101694.16;;;18.41
49593;BMP280;35499;51.482;4.264;2023-04-25T13:00:58;101686.47;;;18.88
49593;BMP280;35499;51.482;4.264;2023-04-25T13:03:23;101671.84;;;19.08
49593;BMP280;35499;51.482;4.264;2023-04-25T13:05:49;101671.72;;;19.13
49593;BMP280;35499;51.482;4.264;2023-04-25T13:08:16;101677.91;;;19.09
49593;BMP280;35499;51.482;4.264;2023-04-25T13:10:41;101673.09;;;19.45
49593;BMP280;35499;51.482;4.264;2023-04-25T13:13:06;101670.84;;;19.58
49593;BMP280;35499;51.482;4.264;2023-04-25T13:15:32;101678.47;;;19.64
49593;BMP280;35499;51.482;4.264;2023-04-25T13:17:57;101671.22;;;19.72
49593;BMP280;35499;51.482;4.264;2023-04-25T13:20:23;101681.88;;;19.66
49593;BMP280;35499;51.482;4.264;2023-04-25T13:22:48;101675.56;;;19.25
49593;BMP280;35499;51.482;4.264;2023-04-25T13:25:13;101679.28;;;19.18
49593;BMP280;35499;51.482;4.264;2023-04-25T13:27:39;101687.19;;;19.17
49593;BMP280;35499;51.482;4.264;2023-04-25T13:30:05;101696.59;;;18.72
49593;BMP280;35499;51.482;4.264;2023-04-25T13:32:35;101696.94;;;18.62
49593;BMP280;35499;51.482;4.264;2023-04-25T13:35:04;101704.38;;;18.20
49593;BMP280;35499;51.482;4.264;2023-04-25T13:37:30;101709.66;;;17.60
49593;BMP280;35499;51.482;4.264;2023-04-25T13:39:59;101719.16;;;17.01
49593;BMP280;35499;51.482;4.264;2023-04-25T13:42:24;101713.56;;;16.83
49593;BMP280;35499;51.482;4.264;2023-04-25T13:44:49;101707.41;;;16.86
49593;BMP280;35499;51.482;4.264;2023-04-25T13:47:15;101714.53;;;17.13
49593;BMP280;35499;51.482;4.264;2023-04-25T13:49:40;101704.31;;;17.37
49593;BMP280;35499;51.482;4.264;2023-04-25T13:52:05;101699.84;;;17.41
49593;BMP280;35499;51.482;4.264;2023-04-25T13:54:31;101699.19;;;17.34
49593;BMP280;35499;51.482;4.264;2023-04-25T13:56:56;101706.25;;;17.29
49593;BMP280;35499;51.482;4.264;2023-04-25T13:59:24;101715.28;;;17.16
49593;BMP280;35499;51.482;4.264;2023-04-25T14:01:51;101715.50;;;16.75
49593;BMP280;35499;51.482;4.264;2023-04-25T14:04:16;101714.63;;;16.42
49593;BMP280;35499;51.482;4.264;2023-04-25T14:06:41;101712.28;;;15.94
49593;BMP280;35499;51.482;4.264;2023-04-25T14:09:07;101718.94;;;15.64
49593;BMP280;35499;51.482;4.264;2023-04-25T14:11:36;101719.34;;;15.47
49593;BMP280;35499;51.482;4.264;2023-04-25T14:14:01;101730.16;;;15.23